Weather at Borderpost Helipad [CLOSED]

Public forecast

Using degrees Celsius for public forecast. Weather courtesy of forecast.io.

Closest aviation weather report (METAR) to Borderpost Helipad

Closest report is Hatay Airport, 14.0 nm (25.9 km) WSW.

2024/04/22 11:50 (retrieved 27 minutes ago)

LTDA 221150Z 20015KT 9999 FEW040 25/14 Q1017 NOSIG

Closest aviation forecast (TAF) to Borderpost Helipad

Forecast is more than 6 hours old.

Closest forecast is Aleppo International Airport, 37.1 nm (68.7 km) ESE.

2024/04/22 06:00 (retrieved 6 hours ago)

TAF OSAP 220500Z 2206/2306 32006KT 6000 FEW030 BECMG 2218/2220 VRB03KT CAVOK